Sns 262 — FGA2745 — position and weather

sailwx.info

Track history (hours):
 
Tides and Currents Weather Stations Pressure Air Temp Water Temp Dewpoint Dewpoint Depression Visibility Wind Speed Wind Dir Waves Ship Positions

Sns 262

Last reported at 2017-Jun-22 21:22 UTC. Time now 2017-Jun-24 05:15 UTC.
Position N 43°32' E 007°00'.

Length 10 m.

Type: SAR. MMSI: 227008150.

Date/timePositionNaut miles runAvg speedWind from/ knotsBaromVisibWave heightAir tempDewpointWater temp
2017-Jun-22 21:22N 43°32' E 007°00'2 4.2
2017-Jun-22 20:54N 43°30' E 006°59'  
2017-Jun-17 18:30N 43°33' E 007°04'5 5.5
2017-Jun-17 17:35N 43°32' E 006°57'0 2.9
2017-Jun-17 17:30N 43°32' E 006°57'4 7.3
2017-Jun-17 16:59N 43°31' E 007°02'2 0.1
2017-Jun-15 19:24N 43°31' E 006°59'1 1.9
2017-Jun-15 18:41N 43°31' E 006°57'1 8.2
2017-Jun-15 18:30N 43°31' E 006°59'3 0.3
2017-Jun-15 07:42N 43°32' E 007°03'  
Track history (hours):
 
Tides and Currents Weather Stations Pressure Air Temp Water Temp Dewpoint Dewpoint Depression Visibility Wind Speed Wind Dir Waves Ship Positions

Sns 262

Last reported at 2017-Jun-22 21:22 UTC. Time now 2017-Jun-24 05:15 UTC.
Position N 43°32' E 007°00'.

Length 10 m.

Type: SAR. MMSI: 227008150.

Date/timePositionNaut miles runAvg speedWind from/ knotsBaromVisibWave heightAir tempDewpointWater temp
2017-Jun-22 21:22N 43°32' E 007°00'2 4.2
2017-Jun-22 20:54N 43°30' E 006°59'  
2017-Jun-17 18:30N 43°33' E 007°04'5 5.5
2017-Jun-17 17:35N 43°32' E 006°57'0 2.9
2017-Jun-17 17:30N 43°32' E 006°57'4 7.3
2017-Jun-17 16:59N 43°31' E 007°02'2 0.1
2017-Jun-15 19:24N 43°31' E 006°59'1 1.9
2017-Jun-15 18:41N 43°31' E 006°57'1 8.2
2017-Jun-15 18:30N 43°31' E 006°59'3 0.3
2017-Jun-15 07:42N 43°32' E 007°03'  

Dump ship's entire track history